Time;durP1;ratioP1;P1;durP2;ratioP2;P2;SDS_P1;SDS_P2;PMS_P1;PMS_P2;Temp;Humidity;BMP_temperature;BMP_pressure;BME280_temperature;BME280_humidity;BME280_pressure;Samples;Min_cycle;Max_cycle;Signal;HPM_P1;HPM_P2
2023/05/23 00:00:50;;;;;;;;;;;;;;;19.14;100.00;99935.78;5070727;28;19923;-61
2023/05/23 00:03:16;;;;;;;;;;;;;;;19.09;100.00;99927.16;5070109;28;19924;-62
2023/05/23 00:05:41;;;;;;;;;;;;;;;19.15;100.00;99928.56;5071066;28;19912;-62
2023/05/23 00:08:06;;;;;;;;;;;;;;;19.14;100.00;99925.00;5071104;28;19912;-60
2023/05/23 00:10:32;;;;;;;;;;;;;;;19.24;100.00;99914.47;5070860;28;19916;-62
2023/05/23 00:12:57;;;;;;;;;;;;;;;19.23;100.00;99923.50;5070937;28;19912;-62
2023/05/23 00:15:23;;;;;;;;;;;;;;;19.24;100.00;99919.88;5070503;28;19974;-62
2023/05/23 00:17:48;;;;;;;;;;;;;;;19.19;100.00;99927.41;5070423;28;19922;-62
2023/05/23 00:20:14;;;;;;;;;;;;;;;19.18;100.00;99936.44;5070800;28;19934;-62
2023/05/23 00:22:43;;;;;;;;;;;;;;;19.16;100.00;99939.25;5071042;28;19965;-62
2023/05/23 00:25:08;;;;;;;;;;;;;;;19.16;100.00;99943.81;5059387;28;19938;-61
2023/05/23 00:27:34;;;;;;;;;;;;;;;19.09;99.77;99942.50;5051202;28;19913;-61
2023/05/23 00:30:03;;;;;;;;;;;;;;;19.04;100.00;99941.94;5057789;28;19916;-62
2023/05/23 00:32:28;;;;;;;;;;;;;;;18.96;100.00;99945.13;5053037;28;20296;-62
2023/05/23 00:34:54;;;;;;;;;;;;;;;18.85;100.00;99945.00;5070977;28;19912;-62
2023/05/23 00:37:21;;;;;;;;;;;;;;;18.80;100.00;99941.75;5069846;28;19912;-61
2023/05/23 00:39:46;;;;;;;;;;;;;;;18.75;100.00;99948.41;5052620;28;19912;-62
2023/05/23 00:42:12;;;;;;;;;;;;;;;18.69;100.00;99944.31;5070895;28;20403;-61
2023/05/23 00:44:37;;;;;;;;;;;;;;;18.68;100.00;99949.81;5075008;28;19936;-62
2023/05/23 00:47:02;;;;;;;;;;;;;;;18.71;100.00;99952.28;5056925;28;20698;-61
2023/05/23 00:49:28;;;;;;;;;;;;;;;18.68;100.00;99937.19;5075337;28;19920;-62
2023/05/23 00:51:53;;;;;;;;;;;;;;;18.68;100.00;99949.81;5074647;28;19930;-62
2023/05/23 00:54:23;;;;;;;;;;;;;;;18.69;100.00;99947.00;5073910;28;19919;-62
2023/05/23 00:56:48;;;;;;;;;;;;;;;18.70;100.00;99954.13;5074715;28;20367;-61
2023/05/23 00:59:14;;;;;;;;;;;;;;;18.74;100.00;99952.09;5073872;28;19965;-62
2023/05/23 01:01:40;;;;;;;;;;;;;;;18.73;100.00;99956.59;5073570;28;19920;-62
2023/05/23 01:04:05;;;;;;;;;;;;;;;18.68;100.00;99957.91;5072936;28;19977;-62
2023/05/23 01:06:32;;;;;;;;;;;;;;;18.65;100.00;99950.03;5074576;28;19995;-61
2023/05/23 01:09:01;;;;;;;;;;;;;;;18.61;100.00;99957.44;5074367;28;19998;-62
2023/05/23 01:11:35;;;;;;;;;;;;;;;18.58;100.00;99960.34;5075791;28;19927;-62
2023/05/23 01:14:09;;;;;;;;;;;;;;;18.54;100.00;99949.84;5074547;28;19912;-62
2023/05/23 01:16:47;;;;;;;;;;;;;;;18.49;100.00;99962.75;5075661;28;19951;-62
2023/05/23 01:19:31;;;;;;;;;;;;;;;18.45;100.00;99956.69;5076366;28;19919;-62
2023/05/23 01:22:00;;;;;;;;;;;;;;;18.43;100.00;99952.38;5073368;28;19916;-62
2023/05/23 01:24:25;;;;;;;;;;;;;;;18.41;100.00;99948.94;5054345;28;19994;-62
2023/05/23 01:26:57;;;;;;;;;;;;;;;18.40;100.00;99955.28;5054869;28;20372;-61
2023/05/23 01:29:27;;;;;;;;;;;;;;;18.37;100.00;99962.56;5070794;28;20403;-62
2023/05/23 01:31:54;;;;;;;;;;;;;;;18.35;100.00;99964.47;5074009;28;19912;-62
2023/05/23 01:34:20;;;;;;;;;;;;;;;18.32;100.00;99962.00;5073225;28;20658;-63
2023/05/23 01:36:48;;;;;;;;;;;;;;;18.26;100.00;99962.41;5073894;28;19942;-62
2023/05/23 01:39:13;;;;;;;;;;;;;;;18.25;100.00;99955.28;5073869;28;20007;-63
2023/05/23 01:41:39;;;;;;;;;;;;;;;18.24;100.00;99953.56;5073844;28;20011;-62
2023/05/23 01:44:05;;;;;;;;;;;;;;;18.24;100.00;99956.25;5073461;28;19939;-62
2023/05/23 01:46:31;;;;;;;;;;;;;;;18.25;100.00;99960.66;5074384;28;19912;-62
2023/05/23 01:48:57;;;;;;;;;;;;;;;18.26;100.00;99966.91;5053091;28;19912;-62
2023/05/23 01:51:23;;;;;;;;;;;;;;;18.26;100.00;99965.09;5074537;28;19935;-61
2023/05/23 01:53:51;;;;;;;;;;;;;;;18.26;100.00;99966.91;5075455;28;19912;-62
2023/05/23 01:56:18;;;;;;;;;;;;;;;18.20;100.00;99968.16;5074673;28;20294;-62
2023/05/23 01:58:44;;;;;;;;;;;;;;;18.15;100.00;99969.44;5073248;28;19923;-62
2023/05/23 02:01:09;;;;;;;;;;;;;;;18.14;100.00;99971.25;5072970;28;19916;-63
2023/05/23 02:03:35;;;;;;;;;;;;;;;18.18;100.00;99978.19;5072403;28;19942;-62
2023/05/23 02:06:01;;;;;;;;;;;;;;;18.26;100.00;99967.78;5073810;28;19958;-63
2023/05/23 02:08:26;;;;;;;;;;;;;;;18.28;100.00;99970.38;5073014;28;19913;-62
2023/05/23 02:10:52;;;;;;;;;;;;;;;18.31;100.00;99976.44;5072566;28;20387;-63
2023/05/23 02:13:17;;;;;;;;;;;;;;;18.38;100.00;99977.75;5072594;28;19912;-62
2023/05/23 02:15:42;;;;;;;;;;;;;;;18.44;100.00;99981.03;5073626;28;19943;-62
2023/05/23 02:18:08;;;;;;;;;;;;;;;18.50;100.00;99986.91;5072692;28;19909;-63
2023/05/23 02:20:34;;;;;;;;;;;;;;;18.58;100.00;99984.59;5072316;28;19923;-62
2023/05/23 02:22:59;;;;;;;;;;;;;;;18.63;100.00;99979.75;5071647;28;19912;-62
2023/05/23 02:25:24;;;;;;;;;;;;;;;18.69;100.00;99981.16;5071593;28;19969;-62
2023/05/23 02:27:50;;;;;;;;;;;;;;;18.70;100.00;99983.75;5069221;28;19912;-62
2023/05/23 02:30:15;;;;;;;;;;;;;;;18.69;100.00;99976.66;5072149;28;19943;-62
2023/05/23 02:32:40;;;;;;;;;;;;;;;18.69;100.00;99975.78;5053422;28;20292;-61
2023/05/23 02:35:06;;;;;;;;;;;;;;;18.68;100.00;99979.44;5072261;28;19913;-63
2023/05/23 02:37:31;;;;;;;;;;;;;;;18.68;100.00;99982.16;5072094;28;19908;-62
2023/05/23 02:39:56;;;;;;;;;;;;;;;18.69;100.00;99989.25;5071961;28;19912;-63
2023/05/23 02:42:22;;;;;;;;;;;;;;;18.62;100.00;99983.41;5070225;28;20007;-62
2023/05/23 02:44:47;;;;;;;;;;;;;;;18.57;100.00;99982.84;5070454;28;19916;-62
2023/05/23 02:47:12;;;;;;;;;;;;;;;18.49;100.00;99989.69;5071666;28;19912;-63
2023/05/23 02:49:38;;;;;;;;;;;;;;;18.43;100.00;99992.78;5072113;28;20042;-62
2023/05/23 02:52:03;;;;;;;;;;;;;;;18.32;100.00;99999.69;5053866;28;19923;-61
2023/05/23 02:54:28;;;;;;;;;;;;;;;18.26;100.00;99999.22;5071092;28;19912;-62
2023/05/23 02:56:54;;;;;;;;;;;;;;;18.26;100.00;100005.50;5071024;28;19912;-61
2023/05/23 02:59:20;;;;;;;;;;;;;;;18.28;100.00;100003.56;5071038;28;19908;-62
2023/05/23 03:01:46;;;;;;;;;;;;;;;18.31;100.00;99995.28;5071266;28;19925;-62
2023/05/23 03:04:12;;;;;;;;;;;;;;;18.37;100.00;99997.56;5052118;28;20011;-63
2023/05/23 03:06:38;;;;;;;;;;;;;;;18.39;100.00;99997.50;5050742;28;20669;-61
2023/05/23 03:09:04;;;;;;;;;;;;;;;18.42;100.00;99999.16;5050167;28;19920;-62
2023/05/23 03:11:29;;;;;;;;;;;;;;;18.45;100.00;99990.88;5051396;28;20285;-63
2023/05/23 03:13:55;;;;;;;;;;;;;;;18.50;100.00;99992.28;5050638;28;19923;-62
2023/05/23 03:16:21;;;;;;;;;;;;;;;18.58;100.00;99992.66;5051008;28;19909;-63
2023/05/23 03:18:46;;;;;;;;;;;;;;;18.62;100.00;100001.38;5050366;28;19916;-61
2023/05/23 03:21:11;;;;;;;;;;;;;;;18.68;100.00;100006.41;5048109;28;19955;-63
2023/05/23 03:23:36;;;;;;;;;;;;;;;18.74;100.00;100005.97;5050317;28;19908;-62
2023/05/23 03:26:02;;;;;;;;;;;;;;;18.77;100.00;100001.25;5050991;28;19908;-62
2023/05/23 03:28:29;;;;;;;;;;;;;;;18.84;100.00;99999.03;5053630;28;19912;-62
2023/05/23 03:30:55;;;;;;;;;;;;;;;18.88;100.00;100000.56;5049437;28;19924;-62
2023/05/23 03:33:20;;;;;;;;;;;;;;;18.90;100.00;99996.78;5050949;28;19908;-62
2023/05/23 03:35:45;;;;;;;;;;;;;;;18.92;100.00;100010.16;5049916;28;19917;-62
2023/05/23 03:38:10;;;;;;;;;;;;;;;18.99;100.00;100006.09;5050645;28;19917;-62
2023/05/23 03:40:36;;;;;;;;;;;;;;;19.02;100.00;100008.56;5050238;28;20027;-63
2023/05/23 03:43:03;;;;;;;;;;;;;;;19.03;100.00;100012.97;5049778;28;19971;-62
2023/05/23 03:45:29;;;;;;;;;;;;;;;19.01;100.00;100013.09;5052946;28;19919;-62
2023/05/23 03:47:54;;;;;;;;;;;;;;;19.04;100.00;100022.81;5051597;28;20018;-62
2023/05/23 03:50:20;;;;;;;;;;;;;;;19.02;100.00;100022.94;5039572;28;20343;-62
2023/05/23 03:52:45;;;;;;;;;;;;;;;19.00;100.00;100018.59;5033722;28;19916;-61
2023/05/23 03:55:11;;;;;;;;;;;;;;;19.03;100.00;100023.78;5044275;28;19970;-62
2023/05/23 03:57:36;;;;;;;;;;;;;;;19.03;100.00;100029.16;5039043;28;19923;-62
2023/05/23 04:00:04;;;;;;;;;;;;;;;18.99;100.00;100020.44;5028878;28;19920;-62
2023/05/23 04:02:30;;;;;;;;;;;;;;;18.99;100.00;100022.25;5036955;28;19920;-61
2023/05/23 04:04:55;;;;;;;;;;;;;;;19.00;100.00;100023.97;5068495;28;19916;-62
2023/05/23 04:07:21;;;;;;;;;;;;;;;18.98;100.00;100023.22;5068037;28;19919;-62
2023/05/23 04:09:47;;;;;;;;;;;;;;;19.02;100.00;100022.06;5067458;28;19960;-61
2023/05/23 04:12:12;;;;;;;;;;;;;;;19.04;100.00;100022.81;5068477;28;19912;-62
2023/05/23 04:14:38;;;;;;;;;;;;;;;19.06;100.00;100018.19;5069757;28;19912;-62
2023/05/23 04:17:03;;;;;;;;;;;;;;;19.08;100.00;100022.50;5068848;28;19957;-62
2023/05/23 04:19:28;;;;;;;;;;;;;;;19.12;100.00;100028.56;5068743;28;20360;-61
2023/05/23 04:21:54;;;;;;;;;;;;;;;19.16;100.00;100028.25;5069697;28;19920;-62
2023/05/23 04:24:19;;;;;;;;;;;;;;;19.22;100.00;100035.06;5069548;28;19908;-62
2023/05/23 04:26:45;;;;;;;;;;;;;;;19.24;100.00;100039.38;5063428;28;19916;-62
2023/05/23 04:29:11;;;;;;;;;;;;;;;19.27;100.00;100039.19;5069573;28;20390;-62
2023/05/23 04:31:36;;;;;;;;;;;;;;;19.30;100.00;100032.75;5069975;28;19912;-62
2023/05/23 04:34:01;;;;;;;;;;;;;;;19.36;100.00;100032.31;5069673;28;19959;-62
2023/05/23 04:36:26;;;;;;;;;;;;;;;19.40;100.00;100031.16;5069422;28;20062;-61
2023/05/23 04:38:52;;;;;;;;;;;;;;;19.44;100.00;100036.22;5068859;28;19962;-61
2023/05/23 04:41:22;;;;;;;;;;;;;;;19.49;100.00;100038.59;5069585;28;19912;-62
2023/05/23 04:43:47;;;;;;;;;;;;;;;19.53;100.00;100045.53;5050389;28;19916;-61
2023/05/23 04:46:12;;;;;;;;;;;;;;;19.56;100.00;100050.72;5069731;28;20277;-62
2023/05/23 04:48:38;;;;;;;;;;;;;;;19.59;100.00;100055.88;5069728;28;19931;-62
2023/05/23 04:51:07;;;;;;;;;;;;;;;19.64;100.00;100059.13;5069570;28;20387;-61
2023/05/23 04:53:33;;;;;;;;;;;;;;;19.61;100.00;100051.25;5068844;28;19955;-61
2023/05/23 04:55:59;;;;;;;;;;;;;;;19.62;100.00;100059.25;5069615;28;19913;-61
2023/05/23 04:58:24;;;;;;;;;;;;;;;19.63;100.00;100065.53;5069726;28;19913;-61
2023/05/23 05:00:49;;;;;;;;;;;;;;;19.65;100.00;100066.28;5068711;28;19920;-62
2023/05/23 05:03:15;;;;;;;;;;;;;;;19.65;100.00;100071.69;5069316;28;19924;-63
2023/05/23 05:05:40;;;;;;;;;;;;;;;19.68;100.00;100068.75;5069027;28;19908;-62
2023/05/23 05:08:06;;;;;;;;;;;;;;;19.71;100.00;100076.66;5069397;28;20074;-62
2023/05/23 05:10:31;;;;;;;;;;;;;;;19.66;100.00;100078.78;5068167;28;20462;-62
2023/05/23 05:12:57;;;;;;;;;;;;;;;19.69;100.00;100083.97;5063058;28;20334;-62
2023/05/23 05:15:22;;;;;;;;;;;;;;;19.77;100.00;100076.22;5049129;28;20368;-62
2023/05/23 05:17:47;;;;;;;;;;;;;;;19.81;100.00;100079.56;5054158;28;19916;-60
2023/05/23 05:20:13;;;;;;;;;;;;;;;19.81;100.00;100083.13;5069015;28;19955;-60
2023/05/23 05:22:41;;;;;;;;;;;;;;;19.81;100.00;100079.56;5068159;28;19996;-61
2023/05/23 05:25:07;;;;;;;;;;;;;;;19.86;100.00;100077.41;5068492;28;19919;-61
2023/05/23 05:27:33;;;;;;;;;;;;;;;19.88;100.00;100079.06;5046479;28;19917;-61
2023/05/23 05:30:03;;;;;;;;;;;;;;;19.90;100.00;100077.09;5071652;28;19912;-62
2023/05/23 05:32:30;;;;;;;;;;;;;;;20.02;100.00;100088.88;5070495;28;19916;-61
2023/05/23 05:34:55;;;;;;;;;;;;;;;20.07;100.00;100082.19;5070998;28;19995;-61
2023/05/23 05:37:21;;;;;;;;;;;;;;;20.13;100.00;100087.13;5071936;28;20061;-62
2023/05/23 05:39:46;;;;;;;;;;;;;;;20.19;100.00;100078.66;5070436;28;20299;-61
2023/05/23 05:42:11;;;;;;;;;;;;;;;20.29;100.00;100068.94;5071720;28;20452;-61
2023/05/23 05:44:36;;;;;;;;;;;;;;;20.39;100.00;100072.72;5071252;28;19989;-62
2023/05/23 05:47:02;;;;;;;;;;;;;;;20.44;99.14;100077.78;5072543;28;19912;-61
2023/05/23 05:49:27;;;;;;;;;;;;;;;20.47;97.43;100075.72;5072228;28;19916;-61
2023/05/23 05:51:52;;;;;;;;;;;;;;;20.57;95.93;100079.47;5071400;28;19912;-61
2023/05/23 05:54:17;;;;;;;;;;;;;;;20.72;95.12;100081.03;5072560;28;20046;-62
2023/05/23 05:56:43;;;;;;;;;;;;;;;20.76;94.17;100074.44;5072240;28;20307;-62
2023/05/23 05:59:08;;;;;;;;;;;;;;;20.81;93.68;100080.38;5072719;28;19914;-61
2023/05/23 06:01:33;;;;;;;;;;;;;;;20.89;92.83;100077.97;5071166;28;19966;-62
2023/05/23 06:03:59;;;;;;;;;;;;;;;20.90;92.84;100081.56;5068913;28;19935;-62
2023/05/23 06:06:24;;;;;;;;;;;;;;;20.99;93.22;100085.47;5071092;28;19923;-61
2023/05/23 06:08:49;;;;;;;;;;;;;;;20.99;93.48;100078.19;5072258;28;19912;-62
2023/05/23 06:11:15;;;;;;;;;;;;;;;21.04;93.31;100081.41;5070908;28;19912;-62
2023/05/23 06:13:40;;;;;;;;;;;;;;;21.08;93.62;100084.75;5072017;28;20364;-62
2023/05/23 06:16:06;;;;;;;;;;;;;;;21.16;94.41;100098.56;5063158;28;20647;-62
2023/05/23 06:18:31;;;;;;;;;;;;;;;21.20;94.58;100100.09;5044545;28;19958;-62
2023/05/23 06:20:56;;;;;;;;;;;;;;;21.24;94.17;100096.16;5071815;28;19962;-62
2023/05/23 06:23:21;;;;;;;;;;;;;;;21.26;94.54;100091.50;5071128;28;19924;-62
2023/05/23 06:25:47;;;;;;;;;;;;;;;21.20;94.50;100100.09;5071701;28;19992;-62
2023/05/23 06:28:12;;;;;;;;;;;;;;;21.26;94.22;100102.31;5066993;28;19927;-62
2023/05/23 06:30:37;;;;;;;;;;;;;;;21.24;93.46;100113.25;5057891;28;19917;-62
2023/05/23 06:33:03;;;;;;;;;;;;;;;21.35;93.00;100115.19;5051694;28;19913;-62
2023/05/23 06:35:28;;;;;;;;;;;;;;;21.42;93.72;100121.84;5053462;28;19939;-61
2023/05/23 06:37:53;;;;;;;;;;;;;;;21.51;92.83;100121.16;5071514;28;19912;-62
2023/05/23 06:40:19;;;;;;;;;;;;;;;21.53;90.66;100119.22;5070017;28;19999;-62
2023/05/23 06:42:44;;;;;;;;;;;;;;;21.61;89.78;100116.78;5070231;28;19917;-62
2023/05/23 06:45:09;;;;;;;;;;;;;;;21.75;88.73;100120.16;5069584;28;19916;-62
2023/05/23 06:47:35;;;;;;;;;;;;;;;21.91;87.29;100123.44;5051243;28;19959;-61
2023/05/23 06:50:01;;;;;;;;;;;;;;;22.13;87.02;100131.63;5060219;28;19919;-61
2023/05/23 06:52:26;;;;;;;;;;;;;;;22.34;86.25;100129.06;5069959;28;19916;-61
2023/05/23 06:54:51;;;;;;;;;;;;;;;22.51;86.19;100147.59;5070802;28;19913;-61
2023/05/23 06:57:16;;;;;;;;;;;;;;;22.39;83.47;100145.81;5071349;28;19928;-61
2023/05/23 06:59:41;;;;;;;;;;;;;;;22.33;83.65;100153.59;5070487;28;19987;-61
2023/05/23 07:02:07;;;;;;;;;;;;;;;22.36;83.58;100151.50;5070863;28;19920;-62
2023/05/23 07:04:32;;;;;;;;;;;;;;;22.42;84.02;100155.59;5071122;28;19916;-61
2023/05/23 07:06:57;;;;;;;;;;;;;;;22.41;81.91;100162.84;5071170;28;19908;-61
2023/05/23 07:09:23;;;;;;;;;;;;;;;22.52;82.29;100165.56;5070502;28;19995;-60
2023/05/23 07:11:48;;;;;;;;;;;;;;;22.51;80.93;100158.44;5071232;28;19916;-61
2023/05/23 07:14:14;;;;;;;;;;;;;;;22.72;80.82;100156.75;5070554;28;20384;-61
2023/05/23 07:16:39;;;;;;;;;;;;;;;22.81;81.05;100156.00;5064691;28;19913;-61
2023/05/23 07:19:04;;;;;;;;;;;;;;;22.86;79.39;100167.34;5065692;28;19939;-61
2023/05/23 07:21:30;;;;;;;;;;;;;;;23.02;78.54;100169.69;5070549;28;19946;-60
2023/05/23 07:23:55;;;;;;;;;;;;;;;23.15;77.82;100164.97;5069710;28;19914;-61
2023/05/23 07:26:21;;;;;;;;;;;;;;;23.25;77.64;100161.41;5070326;28;19916;-61
2023/05/23 07:28:46;;;;;;;;;;;;;;;23.55;74.72;100162.56;5070365;28;19913;-61
2023/05/23 07:31:12;;;;;;;;;;;;;;;23.94;69.65;100164.66;5070575;28;19912;-61
2023/05/23 07:33:37;;;;;;;;;;;;;;;24.28;67.95;100163.53;5069780;28;19916;-61
2023/05/23 07:36:02;;;;;;;;;;;;;;;24.63;65.75;100166.72;5071015;28;19928;-60
2023/05/23 07:38:28;;;;;;;;;;;;;;;24.75;65.39;100162.97;5070806;28;19919;-61
2023/05/23 07:40:53;;;;;;;;;;;;;;;24.81;63.17;100161.56;5070490;28;19942;-61
2023/05/23 07:43:18;;;;;;;;;;;;;;;24.81;61.69;100161.56;5069286;28;19912;-61
2023/05/23 07:45:44;;;;;;;;;;;;;;;24.77;63.63;100160.09;5070393;28;19943;-61
2023/05/23 07:48:11;;;;;;;;;;;;;;;24.77;64.57;100160.09;5068941;28;20387;-61
2023/05/23 07:50:36;;;;;;;;;;;;;;;24.60;63.91;100175.16;5069753;28;20056;-61
2023/05/23 07:53:01;;;;;;;;;;;;;;;24.40;65.25;100173.31;5070107;28;19908;-60
2023/05/23 07:55:26;;;;;;;;;;;;;;;23.97;65.07;100181.56;5060656;28;19953;-60
2023/05/23 07:57:53;;;;;;;;;;;;;;;23.58;67.02;100174.06;5066162;28;20450;-61
2023/05/23 08:00:19;;;;;;;;;;;;;;;23.21;68.10;100180.78;5068584;28;19986;-61
2023/05/23 08:02:44;;;;;;;;;;;;;;;22.84;69.85;100187.44;5069794;28;19920;-61
2023/05/23 08:05:09;;;;;;;;;;;;;;;22.48;71.84;100187.63;5069507;28;20011;-61
2023/05/23 08:07:35;;;;;;;;;;;;;;;22.22;73.29;100194.22;5069213;28;19908;-60
2023/05/23 08:10:00;;;;;;;;;;;;;;;22.12;74.81;100194.06;5051937;28;19912;-61
2023/05/23 08:12:25;;;;;;;;;;;;;;;21.82;75.22;100201.81;5070088;28;19909;-61
2023/05/23 08:14:51;;;;;;;;;;;;;;;21.69;76.25;100201.00;5069994;28;20399;-61
2023/05/23 08:17:16;;;;;;;;;;;;;;;21.42;76.29;100211.16;5068921;28;19926;-61
2023/05/23 08:19:42;;;;;;;;;;;;;;;21.17;75.33;100209.38;5069841;28;19978;-60
2023/05/23 08:22:07;;;;;;;;;;;;;;;21.05;76.33;100212.13;5068884;28;20458;-61
2023/05/23 08:24:33;;;;;;;;;;;;;;;21.02;76.96;100210.50;5069969;28;19912;-61
2023/05/23 08:26:58;;;;;;;;;;;;;;;20.95;76.99;100218.16;5069640;28;20344;-61
2023/05/23 08:29:23;;;;;;;;;;;;;;;20.85;77.52;100221.63;5069712;28;19981;-61
2023/05/23 08:31:49;;;;;;;;;;;;;;;20.82;79.39;100224.56;5068671;28;19951;-61
2023/05/23 08:34:14;;;;;;;;;;;;;;;20.61;79.38;100226.94;5069625;28;20276;-61
2023/05/23 08:36:41;;;;;;;;;;;;;;;20.51;79.52;100231.25;5066289;28;19912;-61
2023/05/23 08:39:07;;;;;;;;;;;;;;;20.45;79.76;100231.69;5069877;28;19912;-60
2023/05/23 08:41:33;;;;;;;;;;;;;;;20.50;79.21;100234.94;5068688;28;19924;-61
2023/05/23 08:43:58;;;;;;;;;;;;;;;20.40;79.20;100228.44;5069148;28;19965;-60
2023/05/23 08:46:24;;;;;;;;;;;;;;;20.38;80.70;100233.06;5068888;28;19943;-60
2023/05/23 08:48:51;;;;;;;;;;;;;;;20.34;79.92;100233.41;5069698;28;19931;-61
2023/05/23 08:51:16;;;;;;;;;;;;;;;20.26;79.76;100241.19;5049874;28;19913;-60
2023/05/23 08:53:47;;;;;;;;;;;;;;;20.31;79.29;100239.03;5069596;28;19912;-61
2023/05/23 08:56:13;;;;;;;;;;;;;;;20.26;79.31;100242.03;5069632;28;19934;-61
2023/05/23 08:58:41;;;;;;;;;;;;;;;20.19;79.92;100238.03;5069453;28;20001;-60
2023/05/23 09:01:09;;;;;;;;;;;;;;;20.27;79.45;100241.06;5068698;28;20412;-60
2023/05/23 09:03:38;;;;;;;;;;;;;;;20.21;79.90;100246.91;5070222;28;20417;-60
2023/05/23 09:06:07;;;;;;;;;;;;;;;20.29;79.85;100249.94;5073415;28;19912;-61
2023/05/23 09:08:32;;;;;;;;;;;;;;;20.40;80.60;100249.19;5072755;28;19920;-61
2023/05/23 09:10:57;;;;;;;;;;;;;;;20.35;80.10;100252.22;5073357;28;19912;-61
2023/05/23 09:13:23;;;;;;;;;;;;;;;20.38;80.26;100256.53;5072087;28;19916;-61
2023/05/23 09:16:05;;;;;;;;;;;;;;;20.42;79.33;100255.34;5073334;28;19927;-61
2023/05/23 09:18:41;;;;;;;;;;;;;;;20.43;78.98;100260.66;5072049;28;19923;-62
2023/05/23 09:21:10;;;;;;;;;;;;;;;20.56;78.55;100256.13;5073300;28;20463;-62
2023/05/23 09:23:36;;;;;;;;;;;;;;;20.62;79.11;100260.25;5072369;28;19916;-61
2023/05/23 09:26:05;;;;;;;;;;;;;;;20.69;79.35;100251.59;5067908;28;19909;-62
2023/05/23 09:28:32;;;;;;;;;;;;;;;20.72;78.25;100251.38;5071214;28;19913;-61
2023/05/23 09:31:01;;;;;;;;;;;;;;;20.81;78.12;100256.16;5067863;28;20485;-62
2023/05/23 09:33:35;;;;;;;;;;;;;;;20.91;77.36;100254.53;5054745;28;20429;-62
2023/05/23 09:36:02;;;;;;;;;;;;;;;20.87;76.56;100253.00;5071635;28;19920;-62
2023/05/23 09:38:27;;;;;;;;;;;;;;;20.93;77.11;100255.28;5072697;28;20407;-61
2023/05/23 09:40:54;;;;;;;;;;;;;;;21.04;76.10;100256.41;5072756;28;19916;-61
2023/05/23 09:43:20;;;;;;;;;;;;;;;21.11;75.86;100258.53;5072121;28;19912;-60
2023/05/23 09:45:46;;;;;;;;;;;;;;;21.26;76.42;100256.56;5071339;28;20391;-60
2023/05/23 09:48:12;;;;;;;;;;;;;;;21.39;76.66;100258.28;5072346;28;19920;-60
2023/05/23 09:50:37;;;;;;;;;;;;;;;21.43;75.34;100251.63;5071727;28;19923;-60
2023/05/23 09:53:03;;;;;;;;;;;;;;;21.43;73.08;100254.34;5072182;28;19916;-61
2023/05/23 09:55:28;;;;;;;;;;;;;;;21.49;72.98;100256.63;5063267;28;19909;-61
2023/05/23 09:57:56;;;;;;;;;;;;;;;21.44;72.60;100264.22;5052152;28;19917;-61
2023/05/23 10:00:22;;;;;;;;;;;;;;;21.43;72.26;100254.34;5059426;28;20342;-60
2023/05/23 10:03:07;;;;;;;;;;;;;;;21.48;70.74;100267.56;5072167;28;19920;-61
2023/05/23 10:05:35;;;;;;;;;;;;;;;21.56;70.10;100265.16;5071694;28;19958;-61
2023/05/23 10:08:02;;;;;;;;;;;;;;;21.74;70.98;100263.78;5071971;28;19916;-61
2023/05/23 10:10:30;;;;;;;;;;;;;;;21.72;71.13;100263.91;5072546;28;19912;-61
2023/05/23 10:12:56;;;;;;;;;;;;;;;21.80;70.23;100269.66;5071358;28;20011;-61
2023/05/23 10:15:26;;;;;;;;;;;;;;;21.76;69.37;100267.25;5070368;28;19912;-61
2023/05/23 10:18:04;;;;;;;;;;;;;;;21.71;69.24;100266.72;5053125;28;20376;-61
2023/05/23 10:20:33;;;;;;;;;;;;;;;22.00;70.27;100255.47;5071941;28;19917;-60
2023/05/23 10:23:00;;;;;;;;;;;;;;;22.16;69.09;100263.28;5072250;28;19942;-60
2023/05/23 10:25:25;;;;;;;;;;;;;;;22.34;67.75;100264.59;5071006;28;20279;-60
2023/05/23 10:27:57;;;;;;;;;;;;;;;22.43;66.89;100269.31;5072006;28;19912;-60
2023/05/23 10:30:22;;;;;;;;;;;;;;;22.42;66.70;100264.84;5068342;28;20272;-60
2023/05/23 10:32:48;;;;;;;;;;;;;;;22.50;67.42;100270.59;5052228;28;19919;-60
2023/05/23 10:35:21;;;;;;;;;;;;;;;22.41;65.50;100270.41;5051477;28;19912;-60
2023/05/23 10:37:46;;;;;;;;;;;;;;;22.36;65.45;100276.19;5051832;28;19920;-61
2023/05/23 10:40:15;;;;;;;;;;;;;;;22.19;64.30;100280.19;5066154;28;20650;-61
2023/05/23 10:42:59;;;;;;;;;;;;;;;22.21;66.39;100279.22;5071819;28;20264;-61
2023/05/23 10:45:24;;;;;;;;;;;;;;;22.20;64.74;100278.34;5071739;28;19913;-61
2023/05/23 10:47:53;;;;;;;;;;;;;;;22.30;65.43;100273.09;5070507;28;19904;-61
2023/05/23 10:50:32;;;;;;;;;;;;;;;22.45;67.05;100280.91;5071714;28;20374;-60
2023/05/23 10:52:59;;;;;;;;;;;;;;;22.53;64.99;100275.78;5071505;28;19969;-60
2023/05/23 10:55:26;;;;;;;;;;;;;;;22.56;62.90;100280.97;5070415;28;19916;-60
2023/05/23 10:58:14;;;;;;;;;;;;;;;22.44;62.65;100287.31;5053246;28;19963;-61
2023/05/23 11:00:49;;;;;;;;;;;;;;;22.49;63.47;100286.97;5070405;28;19912;-61
2023/05/23 11:03:15;;;;;;;;;;;;;;;22.43;61.89;100285.59;5068712;28;20002;-60
2023/05/23 11:05:46;;;;;;;;;;;;;;;22.43;62.62;100288.31;5070165;28;19927;-59
2023/05/23 11:08:13;;;;;;;;;;;;;;;22.47;61.14;100291.63;5070215;28;19915;-60
2023/05/23 11:10:55;;;;;;;;;;;;;;;22.59;62.13;100286.16;5068811;28;19916;-60
2023/05/23 11:13:21;;;;;;;;;;;;;;;22.57;62.50;100282.69;5069491;28;19912;-61
2023/05/23 11:15:46;;;;;;;;;;;;;;;22.71;62.31;100281.63;5070576;28;20625;-61
2023/05/23 11:18:27;;;;;;;;;;;;;;;22.86;62.01;100284.00;5070070;28;19924;-60
2023/05/23 11:20:53;;;;;;;;;;;;;;;22.88;59.51;100282.03;5069702;28;19912;-60
2023/05/23 11:23:20;;;;;;;;;;;;;;;23.05;59.93;100281.56;5068960;28;20356;-60
2023/05/23 11:25:49;;;;;;;;;;;;;;;23.18;59.08;100279.59;5069490;28;20372;-60
2023/05/23 11:28:16;;;;;;;;;;;;;;;23.60;59.16;100277.13;5070107;28;20353;-60
2023/05/23 11:30:41;;;;;;;;;;;;;;;23.82;57.99;100277.94;5067207;28;19912;-61
2023/05/23 11:33:12;;;;;;;;;;;;;;;23.77;57.90;100271.19;5070434;28;19923;-61
2023/05/23 11:35:41;;;;;;;;;;;;;;;23.64;58.56;100271.31;5070513;28;19912;-61
2023/05/23 11:38:09;;;;;;;;;;;;;;;23.77;58.82;100265.75;5070718;28;19912;-61
2023/05/23 11:40:36;;;;;;;;;;;;;;;23.78;57.65;100270.19;5069618;28;20014;-60
2023/05/23 11:43:03;;;;;;;;;;;;;;;23.77;58.07;100271.19;5070290;28;20002;-60
2023/05/23 11:45:30;;;;;;;;;;;;;;;23.79;58.68;100277.38;5070623;28;19908;-61
2023/05/23 11:47:55;;;;;;;;;;;;;;;23.78;59.20;100267.47;5069951;28;19920;-60
2023/05/23 11:50:21;;;;;;;;;;;;;;;23.96;56.85;100276.81;5069941;28;20570;-60
2023/05/23 11:52:50;;;;;;;;;;;;;;;24.02;56.13;100273.63;5070379;28;19912;-61
2023/05/23 11:55:19;;;;;;;;;;;;;;;24.17;55.36;100275.91;5068328;28;19923;-61
2023/05/23 11:57:45;;;;;;;;;;;;;;;24.41;53.80;100267.53;5060972;28;19931;-61
2023/05/23 12:00:11;;;;;;;;;;;;;;;24.45;54.98;100272.56;5069625;28;19912;-60
2023/05/23 12:02:39;;;;;;;;;;;;;;;24.73;55.52;100265.63;5069942;28;19977;-61
2023/05/23 12:05:12;;;;;;;;;;;;;;;24.77;54.83;100269.81;5070415;28;20228;-60
2023/05/23 12:07:47;;;;;;;;;;;;;;;24.79;51.89;100262.41;5064791;28;19915;-61
2023/05/23 12:10:16;;;;;;;;;;;;;;;24.82;51.95;100262.13;5050780;28;19969;-60
2023/05/23 12:12:42;;;;;;;;;;;;;;;25.02;52.71;100258.53;5051133;28;19951;-60
2023/05/23 12:15:08;;;;;;;;;;;;;;;25.23;52.18;100256.63;5056164;28;19955;-60
2023/05/23 12:17:34;;;;;;;;;;;;;;;25.37;50.90;100253.53;5069992;28;19980;-60
2023/05/23 12:20:00;;;;;;;;;;;;;;;25.48;51.63;100253.44;5062640;28;19955;-60
2023/05/23 12:22:27;;;;;;;;;;;;;;;25.59;50.60;100247.88;5069003;28;19924;-60
2023/05/23 12:24:53;;;;;;;;;;;;;;;25.89;47.10;100236.91;5051445;28;19974;-60
2023/05/23 12:27:18;;;;;;;;;;;;;;;25.92;47.26;100247.53;5060234;28;20000;-60
2023/05/23 12:29:49;;;;;;;;;;;;;;;26.21;49.69;100246.72;5051968;28;19959;-60
2023/05/23 12:32:14;;;;;;;;;;;;;;;26.41;45.92;100241.09;5050649;28;19913;-60